27°F Temp
18°F Dewpoint
69% Humidity
Temperature
12 MPH
19 KM/H
10 KTS
340°
North North
West

Wind Speed
Mostly Cloudy
Conditions
Pressure 1016 (hPa) - 29.98 (in)
Visibility 10.0 (mi) - 16.1 (km)

Current Conditions
KAVP
Location Wilkes-Barre / Scranton International 10(mi)
Metar :KAVP 181054Z 34010G22KT 10SM BKN036 M03/M08 A2998 RMK AO2 SLP160 T10281078
Tue 18th December 05:54 am

Airport
  Metar Aviation API Data Provided by https://www.checkwx.com/ PHP scripts by weather34.com ©2018